Time;durP1;ratioP1;P1;durP2;ratioP2;P2;SDS_P1;SDS_P2;PMS_P1;PMS_P2;Temp;Humidity;BMP_temperature;BMP_pressure;BME280_temperature;BME280_humidity;BME280_pressure;Samples;Min_cycle;Max_cycle;Signal;HPM_P1;HPM_P2
2021/10/17 00:00:28;;;;;;;100.07;49.60;;;205.30;2252.80;;;;;;5114024;28;20024;-68
2021/10/17 00:02:54;;;;;;;92.85;46.33;;;205.20;2252.80;;;;;;5113707;28;20457;-69
2021/10/17 00:05:23;;;;;;;84.25;44.28;;;205.30;2252.80;;;;;;5113599;28;20039;-69
2021/10/17 00:07:49;;;;;;;94.10;47.83;;;205.20;2252.80;;;;;;5113554;28;20380;-69
2021/10/17 00:10:19;;;;;;;103.80;47.47;;;205.30;2252.80;;;;;;5113626;28;20039;-69
2021/10/17 00:12:45;;;;;;;105.90;49.75;;;205.30;2252.80;;;;;;5113839;28;20080;-69
2021/10/17 00:15:13;;;;;;;115.28;51.70;;;205.30;2252.80;;;;;;5113614;28;20032;-67
2021/10/17 00:17:40;;;;;;;97.20;44.85;;;205.30;2252.80;;;;;;5113489;28;20023;-68
2021/10/17 00:20:09;;;;;;;75.78;39.42;;;205.30;2252.80;;;;;;5113708;28;20057;-69
2021/10/17 00:22:35;;;;;;;62.03;32.35;;;205.30;2252.80;;;;;;5117032;28;20050;-69
2021/10/17 00:25:02;;;;;;;53.63;30.10;;;205.30;2252.80;;;;;;5117353;28;20128;-68
2021/10/17 00:27:27;;;;;;;44.75;24.48;;;205.30;2252.80;;;;;;5117273;28;20020;-63
2021/10/17 00:29:53;;;;;;;42.25;23.00;;;205.30;2252.80;;;;;;5117172;28;20111;-69
2021/10/17 00:32:19;;;;;;;47.75;25.45;;;205.30;2252.80;;;;;;5117281;28;20023;-70
2021/10/17 00:34:44;;;;;;;55.70;27.27;;;205.40;2252.80;;;;;;5117253;28;20521;-64
2021/10/17 00:37:10;;;;;;;38.25;21.48;;;205.40;2252.80;;;;;;5116973;28;20060;-69
2021/10/17 00:39:36;;;;;;;41.42;21.45;;;205.40;2252.80;;;;;;5117127;28;20055;-69
2021/10/17 00:42:04;;;;;;;40.42;21.85;;;205.40;2252.80;;;;;;5117374;28;20110;-69
2021/10/17 00:44:31;;;;;;;37.33;21.20;;;205.40;2252.80;;;;;;5116946;28;20039;-67
2021/10/17 00:46:57;;;;;;;33.90;20.95;;;205.40;2252.80;;;;;;5116730;28;20027;-67
2021/10/17 00:49:23;;;;;;;39.95;20.92;;;205.40;2252.80;;;;;;5116817;28;20016;-69
2021/10/17 00:51:49;;;;;;;35.72;20.98;;;205.40;2252.80;;;;;;5116812;28;20028;-69
2021/10/17 00:54:15;;;;;;;37.03;21.38;;;205.40;2252.80;;;;;;5116545;28;20024;-68
2021/10/17 00:56:43;;;;;;;43.10;23.52;;;205.40;2252.80;;;;;;5116772;28;20031;-69
2021/10/17 00:59:11;;;;;;;36.83;21.25;;;205.40;2252.80;;;;;;5116749;28;20070;-70
2021/10/17 01:01:37;;;;;;;34.47;20.58;;;205.40;2252.80;;;;;;5116446;28;20030;-70
2021/10/17 01:04:03;;;;;;;41.20;21.52;;;205.40;2252.80;;;;;;5115181;28;20028;-71
2021/10/17 01:06:29;;;;;;;43.00;23.70;;;205.40;2252.80;;;;;;5116750;28;20484;-68
2021/10/17 01:08:56;;;;;;;44.47;23.98;;;205.40;2252.80;;;;;;5116369;28;20055;-71
2021/10/17 01:11:21;;;;;;;42.55;23.02;;;205.30;2252.80;;;;;;5116026;28;20023;-70
2021/10/17 01:13:48;;;;;;;47.17;24.10;;;205.30;2252.80;;;;;;5116718;28;20026;-69
2021/10/17 01:16:13;;;;;;;55.15;27.75;;;205.30;2252.80;;;;;;5116250;28;20024;-70
2021/10/17 01:18:39;;;;;;;44.35;23.55;;;205.30;2252.80;;;;;;5116478;28;20023;-70
2021/10/17 01:21:05;;;;;;;47.67;25.13;;;205.20;2252.80;;;;;;5116508;28;20020;-71
2021/10/17 01:23:31;;;;;;;46.15;24.83;;;205.20;2252.80;;;;;;5116269;28;20392;-71
2021/10/17 01:25:57;;;;;;;55.75;28.40;;;205.20;2252.80;;;;;;5116134;28;20019;-71
2021/10/17 01:28:24;;;;;;;59.15;29.95;;;205.20;2252.80;;;;;;5116043;28;20027;-71
2021/10/17 01:30:49;;;;;;;53.00;28.92;;;205.20;2252.80;;;;;;5115617;28;20020;-70
2021/10/17 01:33:16;;;;;;;55.90;27.95;;;205.20;2252.80;;;;;;5115660;28;20414;-70
2021/10/17 01:35:42;;;;;;;54.30;27.70;;;205.20;2252.80;;;;;;5116075;28;20031;-71
2021/10/17 01:38:10;;;;;;;57.08;28.48;;;205.10;2252.80;;;;;;5116040;28;20484;-71
2021/10/17 01:40:36;;;;;;;54.45;27.77;;;205.10;2252.80;;;;;;5116007;28;20031;-71
2021/10/17 01:43:02;;;;;;;47.80;25.73;;;205.10;2252.80;;;;;;5115789;28;20046;-71
2021/10/17 01:45:28;;;;;;;50.63;24.77;;;205.10;2252.80;;;;;;5114426;28;20484;-71
2021/10/17 01:47:54;;;;;;;48.10;24.25;;;205.10;2252.80;;;;;;5115615;28;20045;-71
2021/10/17 01:50:21;;;;;;;44.85;24.80;;;205.10;2252.80;;;;;;5115673;28;20100;-70
2021/10/17 01:52:47;;;;;;;51.60;24.85;;;205.00;2252.80;;;;;;5114501;28;20020;-71
2021/10/17 01:55:13;;;;;;;45.85;25.30;;;205.00;2252.80;;;;;;5115546;28;20540;-71
2021/10/17 01:57:39;;;;;;;48.40;24.10;;;205.10;2252.80;;;;;;5115619;28;20461;-70
2021/10/17 02:00:07;;;;;;;40.83;22.50;;;205.00;2252.80;;;;;;5115411;28;20068;-71
2021/10/17 02:02:33;;;;;;;37.78;21.48;;;205.00;2252.80;;;;;;5115543;28;20036;-70
2021/10/17 02:04:59;;;;;;;35.97;20.73;;;205.00;2252.80;;;;;;5115199;28;20039;-66
2021/10/17 02:07:25;;;;;;;33.80;18.38;;;205.00;2252.80;;;;;;5115578;28;20024;-70
2021/10/17 02:09:51;;;;;;;29.88;17.38;;;205.00;2252.80;;;;;;5115238;28;20381;-70
2021/10/17 02:12:21;;;;;;;31.40;17.55;;;205.00;2252.80;;;;;;5115346;28;20024;-71
2021/10/17 02:14:47;;;;;;;33.03;17.75;;;205.00;2252.80;;;;;;5115153;28;20032;-70
2021/10/17 02:17:13;;;;;;;26.30;15.90;;;204.90;2252.80;;;;;;5115058;28;20068;-70
2021/10/17 02:19:39;;;;;;;29.33;16.95;;;204.90;2252.80;;;;;;5114703;28;20138;-71
2021/10/17 02:22:04;;;;;;;25.38;16.05;;;204.90;2252.80;;;;;;5114801;28;20380;-71
2021/10/17 02:24:30;;;;;;;32.90;18.05;;;204.90;2252.80;;;;;;5114908;28;20046;-71
2021/10/17 02:26:56;;;;;;;30.58;16.50;;;204.90;2252.80;;;;;;5113296;28;20024;-71
2021/10/17 02:29:21;;;;;;;29.67;16.88;;;204.90;2252.80;;;;;;5115028;28;20031;-70
2021/10/17 02:31:47;;;;;;;28.15;16.40;;;204.90;2252.80;;;;;;5114904;28;20039;-70
2021/10/17 02:34:13;;;;;;;30.13;17.08;;;204.80;2252.80;;;;;;5114806;28;20839;-70
2021/10/17 02:36:38;;;;;;;27.95;16.35;;;204.80;2252.80;;;;;;5114809;28;20016;-69
2021/10/17 02:39:04;;;;;;;28.60;16.58;;;204.80;2252.80;;;;;;5114626;28;20033;-69
2021/10/17 02:41:30;;;;;;;30.05;17.85;;;204.80;2252.80;;;;;;5114790;28;20028;-69
2021/10/17 02:43:55;;;;;;;32.35;18.30;;;204.80;2252.80;;;;;;5113879;28;20044;-70
2021/10/17 02:46:21;;;;;;;37.30;22.23;;;180.10;2252.80;;;;;;5114598;28;20027;-70
2021/10/17 02:48:47;;;;;;;39.00;24.15;;;180.10;2252.80;;;;;;5114392;28;20035;-70
2021/10/17 02:51:12;;;;;;;39.05;24.08;;;180.10;2252.80;;;;;;5114715;28;20012;-71
2021/10/17 02:53:38;;;;;;;40.08;25.25;;;180.10;2252.80;;;;;;5114685;28;20027;-70
2021/10/17 02:56:05;;;;;;;36.70;22.67;;;180.10;2252.80;;;;;;5114483;28;20485;-70
2021/10/17 02:58:30;;;;;;;35.45;20.48;;;180.10;2252.80;;;;;;5114204;28;20027;-70
2021/10/17 03:00:56;;;;;;;33.10;19.05;;;180.10;2252.80;;;;;;5114344;28;20373;-71
2021/10/17 03:03:22;;;;;;;28.90;16.35;;;180.10;2252.80;;;;;;5114106;28;20031;-71
2021/10/17 03:05:47;;;;;;;24.35;14.90;;;180.00;2252.80;;;;;;5114480;28;20073;-70
2021/10/17 03:08:13;;;;;;;24.40;14.88;;;180.00;2252.80;;;;;;5112693;28;20451;-71
2021/10/17 03:10:39;;;;;;;24.05;15.02;;;180.00;2252.80;;;;;;5114362;28;20147;-71
2021/10/17 03:13:04;;;;;;;23.25;15.02;;;180.00;2252.80;;;;;;5114260;28;20042;-70
2021/10/17 03:15:30;;;;;;;24.40;14.65;;;180.00;2252.80;;;;;;5114168;28;20047;-70
2021/10/17 03:17:56;;;;;;;26.67;14.55;;;179.90;2252.80;;;;;;5114040;28;20036;-70
2021/10/17 03:20:23;;;;;;;25.27;15.27;;;179.90;2252.80;;;;;;5114012;28;20367;-68
2021/10/17 03:22:48;;;;;;;23.67;14.35;;;179.90;2252.80;;;;;;5114387;28;20020;-70
2021/10/17 03:25:14;;;;;;;26.80;14.95;;;179.90;2252.80;;;;;;5114165;28;20038;-71
2021/10/17 03:27:40;;;;;;;22.02;14.05;;;179.90;2252.80;;;;;;5114190;28;20055;-71
2021/10/17 03:30:07;;;;;;;24.27;14.55;;;179.80;2252.80;;;;;;5114185;28;20465;-70
2021/10/17 03:32:33;;;;;;;24.58;14.32;;;179.80;2252.80;;;;;;5114448;28;20426;-71
2021/10/17 03:35:03;;;;;;;22.70;13.90;;;179.90;2252.80;;;;;;5113848;28;20019;-68
2021/10/17 03:37:32;;;;;;;25.13;15.40;;;179.80;2252.80;;;;;;5113875;28;20110;-70
2021/10/17 03:39:58;;;;;;;25.63;15.32;;;179.70;2252.80;;;;;;5114170;28;20031;-70
2021/10/17 03:42:24;;;;;;;27.60;15.32;;;179.70;2252.80;;;;;;5114061;28;20019;-70
2021/10/17 03:44:50;;;;;;;26.30;16.02;;;179.70;2252.80;;;;;;5113793;28;20038;-70
2021/10/17 03:47:15;;;;;;;24.13;15.38;;;179.70;2252.80;;;;;;5113912;28;20024;-70
2021/10/17 03:49:41;;;;;;;26.10;15.80;;;179.70;2252.80;;;;;;5113685;28;20496;-71
2021/10/17 03:52:07;;;;;;;25.85;16.25;;;179.60;2252.80;;;;;;5114224;28;20023;-63
2021/10/17 03:54:32;;;;;;;28.38;15.82;;;179.60;2252.80;;;;;;5114084;28;20028;-70
2021/10/17 03:56:58;;;;;;;27.65;16.05;;;179.60;2252.80;;;;;;5117942;28;20098;-70
2021/10/17 03:59:24;;;;;;;27.73;16.67;;;179.60;2252.80;;;;;;5118057;28;20492;-70
2021/10/17 04:01:49;;;;;;;26.35;15.73;;;179.60;2252.80;;;;;;5117807;28;20020;-70
2021/10/17 04:04:15;;;;;;;26.90;16.30;;;179.60;2252.80;;;;;;5117550;28;20035;-69
2021/10/17 04:06:41;;;;;;;26.33;16.13;;;179.50;2252.80;;;;;;5118138;28;20589;-71
2021/10/17 04:09:06;;;;;;;26.90;16.25;;;179.50;2252.80;;;;;;5117636;28;20093;-69
2021/10/17 04:11:32;;;;;;;26.63;16.27;;;179.50;2252.80;;;;;;5117878;28;20031;-71
2021/10/17 04:13:58;;;;;;;28.48;16.27;;;179.50;2252.80;;;;;;5117644;28;20412;-70
2021/10/17 04:16:24;;;;;;;27.20;17.20;;;179.40;2252.80;;;;;;5117202;27;20024;-71
2021/10/17 04:18:49;;;;;;;29.92;18.65;;;179.40;2252.80;;;;;;5117476;28;20050;-70
2021/10/17 04:21:16;;;;;;;30.63;17.55;;;179.40;2252.80;;;;;;5117256;28;20102;-70
2021/10/17 04:23:42;;;;;;;31.60;19.27;;;179.30;2252.80;;;;;;5117229;28;20039;-71
2021/10/17 04:26:08;;;;;;;29.88;18.95;;;179.30;2252.80;;;;;;5117303;28;20541;-68
2021/10/17 04:28:34;;;;;;;28.88;16.90;;;179.30;2252.80;;;;;;5116576;28;20101;-70
2021/10/17 04:30:59;;;;;;;29.75;18.55;;;179.30;2252.80;;;;;;5117394;28;20020;-70
2021/10/17 04:33:25;;;;;;;33.95;18.92;;;179.30;2252.80;;;;;;5117210;28;20099;-70
2021/10/17 04:35:51;;;;;;;32.33;18.50;;;179.30;2252.80;;;;;;5117170;28;20024;-70
2021/10/17 04:38:17;;;;;;;32.00;19.25;;;179.30;2252.80;;;;;;5117258;28;20019;-70
2021/10/17 04:40:43;;;;;;;32.35;20.38;;;179.30;2252.80;;;;;;5117188;28;20047;-69
2021/10/17 04:43:11;;;;;;;31.60;19.98;;;179.30;2252.80;;;;;;5117226;28;20465;-68
2021/10/17 04:45:37;;;;;;;31.90;19.50;;;179.30;2252.80;;;;;;5117184;28;20062;-70
2021/10/17 04:48:04;;;;;;;30.65;18.88;;;179.30;2252.80;;;;;;5116984;28;20016;-69
2021/10/17 04:50:30;;;;;;;32.70;19.75;;;179.30;2252.80;;;;;;5116862;28;20064;-68
2021/10/17 04:52:56;;;;;;;36.33;20.52;;;179.30;2252.80;;;;;;5116797;28;20032;-71
2021/10/17 04:55:22;;;;;;;38.97;21.55;;;179.30;2252.80;;;;;;5116718;28;20019;-70
2021/10/17 04:57:47;;;;;;;48.65;26.33;;;179.20;2252.80;;;;;;5116742;28;20385;-70
2021/10/17 05:00:13;;;;;;;90.10;44.58;;;179.20;2252.80;;;;;;5116893;28;20055;-70
2021/10/17 05:02:39;;;;;;;94.70;45.58;;;179.20;2252.80;;;;;;5115934;28;20448;-70
2021/10/17 05:05:08;;;;;;;78.15;39.35;;;179.20;2252.80;;;;;;5116419;28;20042;-70
2021/10/17 05:07:34;;;;;;;68.35;35.03;;;179.20;2252.80;;;;;;5115439;28;20027;-70
2021/10/17 05:09:59;;;;;;;79.55;39.35;;;179.20;2252.80;;;;;;5116607;28;20038;-69
2021/10/17 05:12:25;;;;;;;101.40;48.88;;;179.20;2252.80;;;;;;5116311;28;20020;-70
2021/10/17 05:14:51;;;;;;;112.03;53.72;;;179.20;2252.80;;;;;;5116384;28;20051;-70
2021/10/17 05:17:17;;;;;;;115.22;55.58;;;154.50;2252.80;;;;;;5116321;28;20048;-69
2021/10/17 05:19:43;;;;;;;94.55;48.75;;;154.50;2252.80;;;;;;5116294;28;20024;-69
2021/10/17 05:22:08;;;;;;;61.80;32.20;;;154.50;2252.80;;;;;;5116071;28;20019;-70
2021/10/17 05:24:34;;;;;;;65.78;35.20;;;179.20;2252.80;;;;;;5115760;28;20038;-70
2021/10/17 05:27:00;;;;;;;95.00;46.15;;;179.20;2252.80;;;;;;5116216;28;20027;-70
2021/10/17 05:29:25;;;;;;;117.30;54.38;;;179.30;2252.80;;;;;;5116168;28;20087;-70
2021/10/17 05:31:51;;;;;;;111.32;50.72;;;179.30;2252.80;;;;;;5115577;28;20027;-70
2021/10/17 05:34:17;;;;;;;94.72;44.65;;;179.40;2252.80;;;;;;5115963;28;20024;-70
2021/10/17 05:36:42;;;;;;;71.72;33.00;;;179.40;2252.80;;;;;;5115725;28;20027;-69
2021/10/17 05:39:10;;;;;;;56.58;28.02;;;179.50;2252.80;;;;;;5116003;28;20027;-66
2021/10/17 05:41:36;;;;;;;44.50;24.23;;;179.60;2252.80;;;;;;5116085;28;20026;-70
2021/10/17 05:44:02;;;;;;;40.88;21.00;;;179.70;2252.80;;;;;;5115802;28;20469;-70
2021/10/17 05:46:28;;;;;;;36.60;21.17;;;179.80;2252.80;;;;;;5115816;28;20098;-68
2021/10/17 05:48:53;;;;;;;34.47;19.77;;;179.90;2252.80;;;;;;5114411;28;20063;-68
2021/10/17 05:51:19;;;;;;;39.80;21.98;;;180.00;2252.80;;;;;;5115594;28;20058;-68
2021/10/17 05:53:45;;;;;;;39.00;21.52;;;204.90;2252.80;;;;;;5115501;28;20032;-68
2021/10/17 05:56:10;;;;;;;41.92;23.67;;;205.40;2252.80;;;;;;5115491;28;20080;-70
2021/10/17 05:58:36;;;;;;;33.67;19.60;;;230.70;2252.80;;;;;;5115169;28;20023;-69
2021/10/17 06:01:02;;;;;;;31.00;19.70;;;256.20;2252.80;;;;;;5115659;28;20031;-69
2021/10/17 06:03:27;;;;;;;31.55;19.13;;;281.70;2278.40;;;;;;5115635;28;20052;-70
2021/10/17 06:05:59;;;;;;;;;;;307.30;2304.00;;;;;;5116206;28;20417;-70
2021/10/17 06:08:25;;;;;;;;;;;332.80;2329.60;;;;;;5115846;28;19992;-70
2021/10/17 06:10:52;;;;;;;51.95;30.70;;;333.60;2329.60;;;;;;5115218;28;20333;-69
2021/10/17 06:13:18;;;;;;;51.75;28.98;;;358.90;2329.60;;;;;;5115397;28;20101;-71
2021/10/17 06:15:43;;;;;;;32.13;20.92;;;384.60;2176.00;;;;;;5115446;28;20023;-71
2021/10/17 06:18:09;;;;;;;21.00;14.95;;;409.90;2073.60;;;;;;5114893;28;20020;-71
2021/10/17 06:20:35;;;;;;;23.30;15.48;;;435.20;1945.60;;;;;;5115143;28;20039;-71
2021/10/17 06:23:00;;;;;;;21.70;15.70;;;436.00;1843.20;;;;;;5114934;28;20027;-71
2021/10/17 06:25:26;;;;;;;25.25;16.23;;;461.10;1766.40;;;;;;5114920;28;20351;-71
2021/10/17 06:27:52;;;;;;;17.95;13.55;;;486.40;1664.00;;;;;;5115180;28;20051;-71
2021/10/17 06:30:18;;;;;;;19.02;13.60;;;486.90;1612.80;;;;;;5115039;28;20073;-70
2021/10/17 06:32:43;;;;;;;18.65;13.50;;;487.10;1561.60;;;;;;5114622;28;20484;-70
2021/10/17 06:35:09;;;;;;;20.83;14.38;;;487.00;1561.60;;;;;;5114308;28;20023;-66
2021/10/17 06:37:35;;;;;;;19.38;15.10;;;486.80;1561.60;;;;;;5114754;28;20053;-70
2021/10/17 06:40:01;;;;;;;43.55;35.38;;;461.70;1612.80;;;;;;5113666;28;20058;-72
2021/10/17 06:42:26;;;;;;;23.73;19.17;;;461.30;1664.00;;;;;;5114775;28;20359;-71
2021/10/17 06:44:52;;;;;;;19.85;15.63;;;460.80;1715.20;;;;;;5114897;28;20036;-71
2021/10/17 06:47:18;;;;;;;21.88;16.45;;;435.50;1766.40;;;;;;5114836;28;20347;-70
2021/10/17 06:49:43;;;;;;;20.52;15.02;;;410.10;1843.20;;;;;;5114577;28;20030;-68
2021/10/17 06:52:09;;;;;;;33.33;25.27;;;384.80;1894.40;;;;;;5114450;28;20020;-69
2021/10/17 06:54:35;;;;;;;24.65;17.00;;;384.50;1971.20;;;;;;5114455;28;20051;-69
2021/10/17 06:57:00;;;;;;;29.90;21.83;;;384.20;1971.20;;;;;;5114726;28;20031;-70
2021/10/17 06:59:26;;;;;;;30.30;22.02;;;384.10;2022.40;;;;;;5114632;28;20469;-69
2021/10/17 07:01:52;;;;;;;23.98;16.05;;;359.30;2073.60;;;;;;5114465;28;20019;-71
2021/10/17 07:04:18;;;;;;;27.33;17.60;;;359.20;2073.60;;;;;;5114227;28;20040;-71
2021/10/17 07:06:44;;;;;;;27.70;18.92;;;359.00;2099.20;;;;;;5114393;28;20473;-71
2021/10/17 07:09:10;;;;;;;24.52;17.52;;;358.90;2150.40;;;;;;5114150;28;20078;-71
2021/10/17 07:11:36;;;;;;;22.20;15.85;;;359.00;2150.40;;;;;;5114428;28;20461;-71
2021/10/17 07:14:02;;;;;;;22.95;16.58;;;358.90;2176.00;;;;;;5114349;28;20426;-70
2021/10/17 07:16:28;;;;;;;22.92;15.93;;;358.90;2176.00;;;;;;5114490;28;20027;-70
2021/10/17 07:18:53;;;;;;;20.85;14.68;;;358.90;2201.60;;;;;;5112832;28;20424;-71
2021/10/17 07:21:19;;;;;;;19.63;13.85;;;358.90;2176.00;;;;;;5114142;28;20476;-69
2021/10/17 07:23:44;;;;;;;26.20;18.67;;;358.90;2201.60;;;;;;5113918;28;20078;-67
2021/10/17 07:26:10;;;;;;;21.25;14.75;;;359.20;2150.40;;;;;;5114212;28;20020;-70
2021/10/17 07:28:36;;;;;;;18.08;11.93;;;384.30;2099.20;;;;;;5114035;28;20058;-71
2021/10/17 07:31:02;;;;;;;19.98;12.57;;;409.90;1996.80;;;;;;5119395;28;20419;-68
2021/10/17 07:33:28;;;;;;;18.38;11.93;;;435.90;1868.80;;;;;;5121064;27;20545;-69
2021/10/17 07:35:54;;;;;;;16.42;11.50;;;486.50;1689.60;;;;;;5121044;27;20028;-70
2021/10/17 07:38:20;;;;;;;16.83;10.48;;;512.80;1510.40;;;;;;5120963;28;20024;-67
2021/10/17 07:40:45;;;;;;;18.90;11.48;;;564.00;1382.40;;;;;;5120890;28;20035;-70
2021/10/17 07:43:11;;;;;;;15.82;11.23;;;614.50;1280.00;;;;;;5120349;28;20414;-69
2021/10/17 07:45:37;;;;;;;43.45;19.75;;;640.40;1152.00;;;;;;5120957;28;20023;-69
2021/10/17 07:48:03;;;;;;;12.65;10.32;;;666.50;1075.20;;;;;;5119410;28;20379;-67
2021/10/17 07:50:28;;;;;;;12.50;10.45;;;692.00;972.80;;;;;;5120647;28;20028;-69
2021/10/17 07:52:54;;;;;;;13.23;10.32;;;742.70;921.60;;;;;;5120856;28;20492;-70
2021/10/17 07:55:21;;;;;;;11.25;8.75;;;742.90;896.00;;;;;;5120586;27;20076;-68
2021/10/17 07:57:49;;;;;;;12.88;9.48;;;768.30;819.20;;;;;;5120538;27;20060;-69
2021/10/17 08:00:19;;;;;;;12.93;9.77;;;793.80;819.20;;;;;;5119059;28;20503;-69
2021/10/17 08:02:45;;;;;;;13.57;9.88;;;819.90;793.60;;;;;;5120678;27;20077;-69
2021/10/17 08:05:11;;;;;;;14.63;11.57;;;845.20;742.40;;;;;;5120443;27;20027;-69
2021/10/17 08:07:37;;;;;;;41.35;26.67;;;845.70;716.80;;;;;;5120264;27;20437;-70
2021/10/17 08:10:03;;;;;;;14.70;11.32;;;845.50;716.80;;;;;;5120501;27;20050;-69
2021/10/17 08:12:29;;;;;;;14.25;10.20;;;845.60;716.80;;;;;;5119131;28;20473;-69
2021/10/17 08:14:55;;;;;;;12.45;8.70;;;871.30;665.60;;;;;;5120360;28;20081;-69
2021/10/17 08:17:20;;;;;;;14.82;11.95;;;896.30;640.00;;;;;;5120553;28;20069;-68
2021/10/17 08:19:47;;;;;;;10.93;9.77;;;896.50;614.40;;;;;;5120528;28;20072;-66
2021/10/17 08:22:13;;;;;;;14.85;11.77;;;921.70;640.00;;;;;;5120458;28;20024;-68
2021/10/17 08:24:39;;;;;;;50.63;27.02;;;922.40;588.80;;;;;;5120347;27;20031;-69
2021/10/17 08:27:05;;;;;;;13.60;11.65;;;922.40;614.40;;;;;;5118979;28;20027;-69
2021/10/17 08:29:31;;;;;;;12.75;10.52;;;947.90;563.20;;;;;;5120479;27;20080;-66
2021/10/17 08:31:57;;;;;;;32.72;19.08;;;973.00;563.20;;;;;;5120335;28;20024;-69
2021/10/17 08:34:22;;;;;;;24.88;15.68;;;973.50;537.60;;;;;;5120375;28;20457;-68
2021/10/17 08:36:48;;;;;;;21.58;13.52;;;973.40;537.60;;;;;;5120146;28;20110;-69
2021/10/17 08:39:14;;;;;;;12.88;11.00;;;973.70;512.00;;;;;;5120342;28;20032;-66
2021/10/17 08:41:39;;;;;;;11.43;8.90;;;998.90;486.40;;;;;;5117403;28;20116;-68
2021/10/17 08:44:05;;;;;;;9.48;8.48;;;999.20;486.40;;;;;;5116839;28;20118;-69
2021/10/17 08:46:33;;;;;;;16.77;12.30;;;1024.30;460.80;;;;;;5117057;28;20020;-69
2021/10/17 08:49:00;;;;;;;15.05;12.02;;;1024.60;460.80;;;;;;5117052;28;20020;-68
2021/10/17 08:51:26;;;;;;;12.40;9.80;;;1049.60;486.40;;;;;;5116766;28;20022;-66
2021/10/17 08:53:52;;;;;;;13.82;10.30;;;1049.60;460.80;;;;;;5116832;28;20027;-67
2021/10/17 08:56:19;;;;;;;13.70;11.32;;;1024.60;435.20;;;;;;5116755;28;20102;-68
2021/10/17 08:58:45;;;;;;;18.02;13.68;;;999.20;460.80;;;;;;5116887;28;20028;-68
2021/10/17 09:01:13;;;;;;;13.32;10.40;;;1024.30;460.80;;;;;;5116621;28;20024;-68
2021/10/17 09:03:39;;;;;;;13.48;10.73;;;1049.70;460.80;;;;;;5116140;28;20481;-67
2021/10/17 09:06:19;;;;;;;13.73;10.75;;;1049.80;460.80;;;;;;5116636;28;20027;-67
2021/10/17 09:08:44;;;;;;;16.02;11.73;;;1050.30;435.20;;;;;;5116386;28;20397;-68
2021/10/17 09:11:11;;;;;;;10.90;9.77;;;1050.50;435.20;;;;;;5116532;28;20038;-66
2021/10/17 09:14:20;;;;;;;13.15;10.65;;;1050.50;435.20;;;;;;5116261;28;20122;-67
2021/10/17 09:16:48;;;;;;;11.75;10.30;;;1075.30;409.60;;;;;;5053712;28;20399;-68
2021/10/17 09:19:21;;;;;;;12.73;11.43;;;1075.30;409.60;;;;;;5053714;28;20040;-68
2021/10/17 09:22:09;;;;;;;13.35;11.95;;;1075.60;409.60;;;;;;5053667;28;20029;-67
2021/10/17 09:24:39;;;;;;;13.77;11.23;;;1101.10;409.60;;;;;;5053539;28;20099;-66
2021/10/17 09:27:25;;;;;;;15.43;11.35;;;1101.30;384.00;;;;;;5053492;28;20079;-65
2021/10/17 09:29:54;;;;;;;15.07;13.25;;;1101.60;384.00;;;;;;5053508;28;20032;-66
2021/10/17 09:32:23;;;;;;;12.93;10.88;;;1101.30;384.00;;;;;;5053359;28;20017;-67
2021/10/17 09:35:07;;;;;;;11.23;9.32;;;1101.30;384.00;;;;;;5053522;28;20037;-67
2021/10/17 09:37:38;;;;;;;11.32;10.13;;;1126.60;409.60;;;;;;5053348;28;20056;-63
2021/10/17 09:40:17;;;;;;;;;;;1101.60;384.00;;;;;;5052198;28;20108;-67
2021/10/17 09:42:59;;;;;;;13.80;12.40;;;1101.40;409.60;;;;;;5036381;28;20321;-67
2021/10/17 09:45:25;;;;;;;18.75;15.02;;;1101.30;384.00;;;;;;5053154;28;20087;-67
2021/10/17 09:47:51;;;;;;;13.68;12.27;;;1101.30;409.60;;;;;;5052997;28;20029;-67
2021/10/17 09:50:18;;;;;;;14.63;12.43;;;1101.40;384.00;;;;;;5053028;28;20029;-65
2021/10/17 09:52:56;;;;;;;13.05;11.23;;;1101.40;384.00;;;;;;5058314;28;20032;-66
2021/10/17 09:55:23;;;;;;;14.55;12.55;;;1101.70;384.00;;;;;;5115956;28;20024;-67
2021/10/17 09:57:51;;;;;;;15.35;12.00;;;1101.50;409.60;;;;;;5115997;28;20384;-66
2021/10/17 10:00:17;;;;;;;13.50;10.77;;;1101.40;384.00;;;;;;5115724;28;20020;-64
2021/10/17 10:02:52;;;;;;;11.00;9.43;;;1101.40;384.00;;;;;;5115334;28;20033;-68
2021/10/17 10:05:27;;;;;;;9.90;8.90;;;1101.70;384.00;;;;;;5115219;28;20114;-67
2021/10/17 10:07:58;;;;;;;12.05;10.35;;;1076.00;384.00;;;;;;5115472;28;20408;-66
2021/10/17 10:10:25;;;;;;;11.27;10.02;;;1101.30;384.00;;;;;;5115263;28;20115;-66
2021/10/17 10:12:52;;;;;;;9.48;7.97;;;1101.60;384.00;;;;;;5114872;28;20020;-66
2021/10/17 10:15:19;;;;;;;9.27;8.27;;;1101.50;384.00;;;;;;5115238;28;20110;-66
2021/10/17 10:17:46;;;;;;;9.80;8.80;;;1126.50;409.60;;;;;;5115147;28;20023;-65
2021/10/17 10:20:13;;;;;;;8.85;7.90;;;1101.70;384.00;;;;;;5114970;28;20050;-62
2021/10/17 10:22:39;;;;;;;10.65;9.55;;;1126.50;409.60;;;;;;5115299;28;20015;-67
2021/10/17 10:25:05;;;;;;;10.25;8.57;;;1101.30;384.00;;;;;;5115097;28;20032;-66
2021/10/17 10:27:34;;;;;;;8.93;8.02;;;1100.90;384.00;;;;;;5114590;28;20016;-63
2021/10/17 10:30:18;;;;;;;14.15;10.85;;;1100.80;384.00;;;;;;5114969;28;20115;-66
2021/10/17 10:33:06;;;;;;;12.10;10.15;;;1050.30;409.60;;;;;;5114948;27;20063;-67
2021/10/17 10:35:33;;;;;;;9.40;7.80;;;1050.10;409.60;;;;;;5114576;28;20015;-65
2021/10/17 10:37:59;;;;;;;12.18;10.70;;;1075.50;384.00;;;;;;5114778;28;20023;-66
2021/10/17 10:40:25;;;;;;;10.27;9.13;;;1024.90;409.60;;;;;;5115031;28;20030;-66
2021/10/17 10:42:52;;;;;;;7.15;6.03;;;1024.10;435.20;;;;;;5114574;28;20028;-65
2021/10/17 10:45:30;;;;;;;10.93;9.82;;;1024.60;384.00;;;;;;5114590;28;20205;-66
2021/10/17 10:48:11;;;;;;;10.25;8.65;;;1050.40;384.00;;;;;;5114922;28;20371;-63
2021/10/17 10:50:42;;;;;;;6.80;4.93;;;1075.40;384.00;;;;;;5114714;28;20019;-64
2021/10/17 10:53:12;;;;;;;7.88;6.70;;;1100.80;384.00;;;;;;5114798;28;20165;-65
2021/10/17 10:55:51;;;;;;;3.92;3.63;;;1101.00;384.00;;;;;;5114749;28;20035;-66
2021/10/17 10:58:20;;;;;;;4.53;3.33;;;1049.70;384.00;;;;;;5114277;28;20094;-65
2021/10/17 11:00:46;;;;;;;5.93;5.32;;;1049.60;384.00;;;;;;5113384;28;20024;-65
2021/10/17 11:03:15;;;;;;;6.60;4.57;;;1024.40;358.40;;;;;;5114403;28;20144;-65
2021/10/17 11:06:04;;;;;;;6.40;4.60;;;1024.00;384.00;;;;;;5113643;27;20111;-67
2021/10/17 11:08:30;;;;;;;4.25;3.78;;;1050.20;384.00;;;;;;5114107;28;20467;-65
2021/10/17 11:10:56;;;;;;;3.35;2.67;;;1049.80;358.40;;;;;;5114290;28;20472;-66
2021/10/17 11:13:40;;;;;;;6.82;4.70;;;1050.40;358.40;;;;;;5112967;28;20023;-67
2021/10/17 11:16:20;;;;;;;4.72;3.80;;;1049.90;358.40;;;;;;5114200;28;20436;-67
2021/10/17 11:18:46;;;;;;;6.70;4.70;;;1050.20;384.00;;;;;;5114308;28;20140;-65
2021/10/17 11:21:12;;;;;;;4.35;3.85;;;1050.40;384.00;;;;;;5114299;28;20049;-67
2021/10/17 11:23:40;;;;;;;5.43;3.95;;;1049.60;384.00;;;;;;5114293;28;20023;-64
2021/10/17 11:26:08;;;;;;;8.02;7.22;;;1049.80;409.60;;;;;;5114228;28;20028;-68
2021/10/17 11:28:37;;;;;;;5.47;4.07;;;1024.90;384.00;;;;;;5114331;28;20023;-67
2021/10/17 11:31:10;;;;;;;7.22;5.55;;;1024.40;384.00;;;;;;5114235;28;20041;-67
2021/10/17 11:33:38;;;;;;;4.30;3.90;;;1024.40;384.00;;;;;;5113840;28;20023;-67
2021/10/17 11:36:08;;;;;;;6.63;5.78;;;1049.80;358.40;;;;;;5114076;28;20024;-66
2021/10/17 11:38:34;;;;;;;4.50;3.40;;;1075.50;358.40;;;;;;5114185;28;20027;-68
2021/10/17 11:41:03;;;;;;;5.22;4.72;;;1050.30;358.40;;;;;;5114099;28;20027;-68
2021/10/17 11:43:33;;;;;;;4.88;3.85;;;1075.70;358.40;;;;;;5113909;28;20089;-68
2021/10/17 11:46:05;;;;;;;5.60;3.72;;;1050.50;358.40;;;;;;5113954;28;20028;-68
2021/10/17 11:48:33;;;;;;;6.10;5.20;;;1076.00;358.40;;;;;;5113733;28;20065;-67
2021/10/17 11:51:05;;;;;;;3.85;3.30;;;1101.30;384.00;;;;;;5113828;28;20481;-67
2021/10/17 11:53:31;;;;;;;6.78;3.90;;;1101.10;384.00;;;;;;5113848;28;20486;-68
2021/10/17 11:55:58;;;;;;;5.70;4.30;;;1100.80;384.00;;;;;;5114325;28;20388;-68
2021/10/17 11:58:29;;;;;;;4.32;3.92;;;1075.80;358.40;;;;;;5113793;28;20027;-68
2021/10/17 12:01:25;;;;;;;4.20;3.80;;;1024.60;384.00;;;;;;5113922;28;20020;-68
2021/10/17 12:03:57;;;;;;;4.72;4.10;;;1049.90;358.40;;;;;;5031000;28;20065;-67